sensor_id;sensor_type;location;lat;lon;timestamp;P1;durP1;ratioP1;P2;durP2;ratioP2
5319;SDS011;2682;49.800;9.990;2022-07-29T00:01:37;6.00;;;6.00;;
5319;SDS011;2682;49.800;9.990;2022-07-29T00:04:04;5.00;;;5.00;;
5319;SDS011;2682;49.800;9.990;2022-07-29T00:06:30;6.00;;;6.00;;
5319;SDS011;2682;49.800;9.990;2022-07-29T00:08:57;6.50;;;6.50;;
5319;SDS011;2682;49.800;9.990;2022-07-29T00:11:23;6.00;;;6.00;;
5319;SDS011;2682;49.800;9.990;2022-07-29T00:13:51;7.00;;;7.00;;
5319;SDS011;2682;49.800;9.990;2022-07-29T00:16:17;6.00;;;6.00;;
5319;SDS011;2682;49.800;9.990;2022-07-29T00:18:44;8.25;;;7.25;;
5319;SDS011;2682;49.800;9.990;2022-07-29T00:21:11;6.50;;;5.50;;
5319;SDS011;2682;49.800;9.990;2022-07-29T00:23:40;6.00;;;6.00;;
5319;SDS011;2682;49.800;9.990;2022-07-29T00:26:06;6.00;;;4.00;;
5319;SDS011;2682;49.800;9.990;2022-07-29T00:28:33;5.50;;;5.50;;
5319;SDS011;2682;49.800;9.990;2022-07-29T00:31:01;6.00;;;6.00;;
5319;SDS011;2682;49.800;9.990;2022-07-29T00:33:28;6.50;;;6.00;;
5319;SDS011;2682;49.800;9.990;2022-07-29T00:35:55;5.50;;;5.50;;
5319;SDS011;2682;49.800;9.990;2022-07-29T00:38:20;6.00;;;6.00;;
5319;SDS011;2682;49.800;9.990;2022-07-29T00:40:46;6.25;;;6.00;;
5319;SDS011;2682;49.800;9.990;2022-07-29T00:43:13;7.00;;;6.00;;
5319;SDS011;2682;49.800;9.990;2022-07-29T00:45:40;8.50;;;8.00;;
5319;SDS011;2682;49.800;9.990;2022-07-29T00:48:08;7.50;;;7.50;;
5319;SDS011;2682;49.800;9.990;2022-07-29T00:50:36;8.00;;;7.00;;
5319;SDS011;2682;49.800;9.990;2022-07-29T00:53:03;6.00;;;5.50;;
5319;SDS011;2682;49.800;9.990;2022-07-29T00:55:29;6.50;;;6.50;;
5319;SDS011;2682;49.800;9.990;2022-07-29T00:57:56;7.75;;;7.25;;
5319;SDS011;2682;49.800;9.990;2022-07-29T01:00:24;6.25;;;6.00;;
5319;SDS011;2682;49.800;9.990;2022-07-29T01:02:51;7.25;;;6.25;;
5319;SDS011;2682;49.800;9.990;2022-07-29T01:05:20;6.25;;;6.25;;
5319;SDS011;2682;49.800;9.990;2022-07-29T01:07:47;7.50;;;7.00;;
5319;SDS011;2682;49.800;9.990;2022-07-29T01:10:15;6.75;;;6.75;;
5319;SDS011;2682;49.800;9.990;2022-07-29T01:12:42;6.25;;;6.00;;
5319;SDS011;2682;49.800;9.990;2022-07-29T01:15:09;6.00;;;5.00;;
5319;SDS011;2682;49.800;9.990;2022-07-29T01:17:37;7.00;;;6.50;;
5319;SDS011;2682;49.800;9.990;2022-07-29T01:20:06;7.00;;;7.00;;
5319;SDS011;2682;49.800;9.990;2022-07-29T01:25:23;7.00;;;6.50;;
5319;SDS011;2682;49.800;9.990;2022-07-29T01:28:01;6.50;;;6.50;;
5319;SDS011;2682;49.800;9.990;2022-07-29T01:30:33;8.00;;;7.00;;
5319;SDS011;2682;49.800;9.990;2022-07-29T01:33:02;7.25;;;7.00;;
5319;SDS011;2682;49.800;9.990;2022-07-29T01:35:31;7.00;;;7.00;;
5319;SDS011;2682;49.800;9.990;2022-07-29T01:38:01;6.00;;;6.00;;
5319;SDS011;2682;49.800;9.990;2022-07-29T01:40:28;7.50;;;6.25;;
5319;SDS011;2682;49.800;9.990;2022-07-29T01:42:58;7.50;;;7.00;;
5319;SDS011;2682;49.800;9.990;2022-07-29T01:45:27;7.00;;;7.00;;
5319;SDS011;2682;49.800;9.990;2022-07-29T01:48:00;6.00;;;6.00;;
5319;SDS011;2682;49.800;9.990;2022-07-29T01:50:30;6.00;;;6.00;;
5319;SDS011;2682;49.800;9.990;2022-07-29T01:52:59;6.75;;;5.00;;
5319;SDS011;2682;49.800;9.990;2022-07-29T01:55:27;6.25;;;6.00;;
5319;SDS011;2682;49.800;9.990;2022-07-29T01:57:57;6.00;;;6.00;;
5319;SDS011;2682;49.800;9.990;2022-07-29T02:00:25;6.75;;;6.25;;
5319;SDS011;2682;49.800;9.990;2022-07-29T02:02:52;7.00;;;6.00;;
5319;SDS011;2682;49.800;9.990;2022-07-29T02:05:21;5.75;;;5.75;;
5319;SDS011;2682;49.800;9.990;2022-07-29T02:07:49;7.25;;;7.25;;
5319;SDS011;2682;49.800;9.990;2022-07-29T02:10:17;7.50;;;7.25;;
5319;SDS011;2682;49.800;9.990;2022-07-29T02:12:44;6.00;;;5.50;;
5319;SDS011;2682;49.800;9.990;2022-07-29T02:15:12;5.25;;;5.00;;
5319;SDS011;2682;49.800;9.990;2022-07-29T02:17:40;6.00;;;6.00;;
5319;SDS011;2682;49.800;9.990;2022-07-29T02:20:08;5.00;;;3.00;;
5319;SDS011;2682;49.800;9.990;2022-07-29T02:22:37;6.00;;;5.50;;
5319;SDS011;2682;49.800;9.990;2022-07-29T02:25:04;5.50;;;5.25;;
5319;SDS011;2682;49.800;9.990;2022-07-29T02:27:31;6.00;;;5.50;;
5319;SDS011;2682;49.800;9.990;2022-07-29T02:30:00;7.25;;;6.50;;
5319;SDS011;2682;49.800;9.990;2022-07-29T02:32:27;5.25;;;5.00;;
5319;SDS011;2682;49.800;9.990;2022-07-29T02:34:55;6.25;;;6.00;;
5319;SDS011;2682;49.800;9.990;2022-07-29T02:37:22;6.00;;;6.00;;
5319;SDS011;2682;49.800;9.990;2022-07-29T02:39:51;6.00;;;5.75;;
5319;SDS011;2682;49.800;9.990;2022-07-29T02:42:18;5.75;;;5.75;;
5319;SDS011;2682;49.800;9.990;2022-07-29T02:44:47;6.75;;;6.00;;
5319;SDS011;2682;49.800;9.990;2022-07-29T02:47:14;4.75;;;4.75;;
5319;SDS011;2682;49.800;9.990;2022-07-29T02:49:46;5.75;;;5.75;;
5319;SDS011;2682;49.800;9.990;2022-07-29T02:52:18;5.75;;;5.00;;
5319;SDS011;2682;49.800;9.990;2022-07-29T02:54:46;5.00;;;5.00;;
5319;SDS011;2682;49.800;9.990;2022-07-29T02:57:18;7.00;;;6.00;;
5319;SDS011;2682;49.800;9.990;2022-07-29T02:59:46;5.50;;;5.00;;
5319;SDS011;2682;49.800;9.990;2022-07-29T03:02:14;5.25;;;5.25;;
5319;SDS011;2682;49.800;9.990;2022-07-29T03:04:41;6.25;;;6.25;;
5319;SDS011;2682;49.800;9.990;2022-07-29T03:07:09;5.00;;;4.00;;
5319;SDS011;2682;49.800;9.990;2022-07-29T03:09:36;5.00;;;5.00;;
5319;SDS011;2682;49.800;9.990;2022-07-29T03:12:04;5.25;;;5.00;;
5319;SDS011;2682;49.800;9.990;2022-07-29T03:14:32;5.00;;;5.00;;
5319;SDS011;2682;49.800;9.990;2022-07-29T03:16:59;5.50;;;5.25;;
5319;SDS011;2682;49.800;9.990;2022-07-29T03:19:26;5.00;;;5.00;;
5319;SDS011;2682;49.800;9.990;2022-07-29T03:21:55;6.50;;;6.00;;
5319;SDS011;2682;49.800;9.990;2022-07-29T03:24:29;5.25;;;5.00;;
5319;SDS011;2682;49.800;9.990;2022-07-29T03:26:56;5.75;;;5.25;;
5319;SDS011;2682;49.800;9.990;2022-07-29T03:29:23;5.00;;;5.00;;
5319;SDS011;2682;49.800;9.990;2022-07-29T03:31:51;5.00;;;4.00;;
5319;SDS011;2682;49.800;9.990;2022-07-29T03:34:18;6.25;;;5.25;;
5319;SDS011;2682;49.800;9.990;2022-07-29T03:36:46;7.00;;;6.00;;
5319;SDS011;2682;49.800;9.990;2022-07-29T03:39:13;5.00;;;5.00;;
5319;SDS011;2682;49.800;9.990;2022-07-29T03:41:42;6.50;;;6.00;;
5319;SDS011;2682;49.800;9.990;2022-07-29T03:44:09;5.25;;;5.25;;
5319;SDS011;2682;49.800;9.990;2022-07-29T03:46:36;5.00;;;4.00;;
5319;SDS011;2682;49.800;9.990;2022-07-29T03:49:06;5.50;;;5.00;;
5319;SDS011;2682;49.800;9.990;2022-07-29T03:51:34;5.50;;;5.50;;
5319;SDS011;2682;49.800;9.990;2022-07-29T03:54:01;4.25;;;4.25;;
5319;SDS011;2682;49.800;9.990;2022-07-29T03:56:28;6.00;;;5.00;;
5319;SDS011;2682;49.800;9.990;2022-07-29T03:58:55;4.50;;;3.00;;
5319;SDS011;2682;49.800;9.990;2022-07-29T04:01:22;5.00;;;5.00;;
5319;SDS011;2682;49.800;9.990;2022-07-29T04:03:50;4.50;;;4.50;;
5319;SDS011;2682;49.800;9.990;2022-07-29T04:06:17;5.00;;;5.00;;
5319;SDS011;2682;49.800;9.990;2022-07-29T04:08:44;3.50;;;3.50;;
5319;SDS011;2682;49.800;9.990;2022-07-29T04:11:11;5.50;;;5.00;;
5319;SDS011;2682;49.800;9.990;2022-07-29T04:13:37;4.50;;;4.50;;
5319;SDS011;2682;49.800;9.990;2022-07-29T04:16:04;6.00;;;6.00;;
5319;SDS011;2682;49.800;9.990;2022-07-29T04:18:30;5.00;;;5.00;;
5319;SDS011;2682;49.800;9.990;2022-07-29T04:20:57;5.00;;;5.00;;
5319;SDS011;2682;49.800;9.990;2022-07-29T04:23:27;5.00;;;5.00;;
5319;SDS011;2682;49.800;9.990;2022-07-29T04:25:53;3.50;;;3.50;;
5319;SDS011;2682;49.800;9.990;2022-07-29T04:28:20;6.00;;;5.50;;
5319;SDS011;2682;49.800;9.990;2022-07-29T04:30:46;6.00;;;5.25;;
5319;SDS011;2682;49.800;9.990;2022-07-29T04:33:13;3.00;;;3.00;;
5319;SDS011;2682;49.800;9.990;2022-07-29T04:35:40;5.00;;;5.00;;
5319;SDS011;2682;49.800;9.990;2022-07-29T04:38:06;6.00;;;5.00;;
5319;SDS011;2682;49.800;9.990;2022-07-29T04:40:34;6.50;;;5.50;;
5319;SDS011;2682;49.800;9.990;2022-07-29T04:43:00;5.75;;;5.75;;
5319;SDS011;2682;49.800;9.990;2022-07-29T04:45:27;5.00;;;5.00;;
5319;SDS011;2682;49.800;9.990;2022-07-29T04:47:54;5.00;;;5.00;;
5319;SDS011;2682;49.800;9.990;2022-07-29T04:50:20;6.00;;;5.00;;
5319;SDS011;2682;49.800;9.990;2022-07-29T04:52:47;3.50;;;3.50;;
5319;SDS011;2682;49.800;9.990;2022-07-29T04:55:13;6.50;;;6.50;;
5319;SDS011;2682;49.800;9.990;2022-07-29T04:57:44;4.00;;;4.00;;
5319;SDS011;2682;49.800;9.990;2022-07-29T05:00:11;4.50;;;3.00;;
5319;SDS011;2682;49.800;9.990;2022-07-29T05:02:38;5.00;;;3.00;;
5319;SDS011;2682;49.800;9.990;2022-07-29T05:05:05;5.25;;;5.00;;
5319;SDS011;2682;49.800;9.990;2022-07-29T05:07:31;5.25;;;5.25;;
5319;SDS011;2682;49.800;9.990;2022-07-29T05:09:58;2.50;;;2.50;;
5319;SDS011;2682;49.800;9.990;2022-07-29T05:12:27;6.25;;;6.25;;
5319;SDS011;2682;49.800;9.990;2022-07-29T05:14:55;5.00;;;5.00;;
5319;SDS011;2682;49.800;9.990;2022-07-29T05:17:22;5.00;;;5.00;;
5319;SDS011;2682;49.800;9.990;2022-07-29T05:19:48;4.50;;;3.00;;
5319;SDS011;2682;49.800;9.990;2022-07-29T05:22:16;5.25;;;5.25;;
5319;SDS011;2682;49.800;9.990;2022-07-29T05:24:43;5.00;;;5.00;;
5319;SDS011;2682;49.800;9.990;2022-07-29T05:27:09;3.00;;;3.00;;
5319;SDS011;2682;49.800;9.990;2022-07-29T05:29:35;5.50;;;4.75;;
5319;SDS011;2682;49.800;9.990;2022-07-29T05:32:04;5.75;;;4.75;;
5319;SDS011;2682;49.800;9.990;2022-07-29T05:34:30;4.25;;;4.25;;
5319;SDS011;2682;49.800;9.990;2022-07-29T05:36:57;6.00;;;4.50;;
5319;SDS011;2682;49.800;9.990;2022-07-29T05:39:24;4.75;;;4.75;;
5319;SDS011;2682;49.800;9.990;2022-07-29T05:41:50;6.25;;;6.00;;
5319;SDS011;2682;49.800;9.990;2022-07-29T05:44:17;3.25;;;3.25;;
5319;SDS011;2682;49.800;9.990;2022-07-29T05:46:43;4.00;;;4.00;;
5319;SDS011;2682;49.800;9.990;2022-07-29T05:49:11;5.00;;;5.00;;
5319;SDS011;2682;49.800;9.990;2022-07-29T05:51:37;4.00;;;4.00;;
5319;SDS011;2682;49.800;9.990;2022-07-29T05:54:04;4.00;;;4.00;;
5319;SDS011;2682;49.800;9.990;2022-07-29T05:56:31;4.50;;;4.50;;
5319;SDS011;2682;49.800;9.990;2022-07-29T05:58:57;5.50;;;4.25;;
5319;SDS011;2682;49.800;9.990;2022-07-29T06:01:24;4.50;;;3.75;;
5319;SDS011;2682;49.800;9.990;2022-07-29T06:03:51;5.00;;;5.00;;
5319;SDS011;2682;49.800;9.990;2022-07-29T06:06:19;5.00;;;5.00;;
5319;SDS011;2682;49.800;9.990;2022-07-29T06:08:45;5.00;;;4.75;;
5319;SDS011;2682;49.800;9.990;2022-07-29T06:11:12;5.50;;;5.50;;
5319;SDS011;2682;49.800;9.990;2022-07-29T06:13:38;4.00;;;4.00;;
5319;SDS011;2682;49.800;9.990;2022-07-29T06:16:05;5.50;;;5.00;;
5319;SDS011;2682;49.800;9.990;2022-07-29T06:18:31;5.00;;;4.75;;
5319;SDS011;2682;49.800;9.990;2022-07-29T06:20:58;6.50;;;5.50;;
5319;SDS011;2682;49.800;9.990;2022-07-29T06:23:26;6.25;;;6.25;;
5319;SDS011;2682;49.800;9.990;2022-07-29T06:25:52;7.50;;;6.50;;
5319;SDS011;2682;49.800;9.990;2022-07-29T06:28:19;5.00;;;4.75;;
5319;SDS011;2682;49.800;9.990;2022-07-29T06:30:48;5.00;;;5.00;;
5319;SDS011;2682;49.800;9.990;2022-07-29T06:33:18;5.00;;;4.80;;
5319;SDS011;2682;49.800;9.990;2022-07-29T06:35:45;7.00;;;6.25;;
5319;SDS011;2682;49.800;9.990;2022-07-29T06:38:12;6.25;;;5.50;;
5319;SDS011;2682;49.800;9.990;2022-07-29T06:40:42;5.75;;;5.25;;
5319;SDS011;2682;49.800;9.990;2022-07-29T06:43:27;5.33;;;5.33;;
5319;SDS011;2682;49.800;9.990;2022-07-29T06:45:56;5.00;;;5.00;;
5319;SDS011;2682;49.800;9.990;2022-07-29T06:48:23;6.00;;;5.75;;
5319;SDS011;2682;49.800;9.990;2022-07-29T06:50:49;4.00;;;4.00;;
5319;SDS011;2682;49.800;9.990;2022-07-29T06:53:16;5.50;;;5.00;;
5319;SDS011;2682;49.800;9.990;2022-07-29T06:55:44;6.00;;;5.25;;
5319;SDS011;2682;49.800;9.990;2022-07-29T06:58:10;6.75;;;5.25;;
5319;SDS011;2682;49.800;9.990;2022-07-29T07:00:39;5.75;;;5.75;;
5319;SDS011;2682;49.800;9.990;2022-07-29T07:03:05;5.25;;;5.25;;
5319;SDS011;2682;49.800;9.990;2022-07-29T07:05:32;4.50;;;4.50;;
5319;SDS011;2682;49.800;9.990;2022-07-29T07:07:58;7.20;;;6.80;;
5319;SDS011;2682;49.800;9.990;2022-07-29T07:10:25;7.80;;;6.80;;
5319;SDS011;2682;49.800;9.990;2022-07-29T07:12:53;5.00;;;4.50;;
5319;SDS011;2682;49.800;9.990;2022-07-29T07:15:20;6.00;;;5.00;;
5319;SDS011;2682;49.800;9.990;2022-07-29T07:17:47;5.60;;;5.40;;
5319;SDS011;2682;49.800;9.990;2022-07-29T07:20:13;6.60;;;6.60;;
5319;SDS011;2682;49.800;9.990;2022-07-29T07:22:40;5.80;;;5.60;;
5319;SDS011;2682;49.800;9.990;2022-07-29T07:25:07;6.00;;;6.00;;
5319;SDS011;2682;49.800;9.990;2022-07-29T07:27:34;6.00;;;6.00;;
5319;SDS011;2682;49.800;9.990;2022-07-29T07:30:02;4.80;;;4.80;;
5319;SDS011;2682;49.800;9.990;2022-07-29T07:32:30;5.80;;;5.80;;
5319;SDS011;2682;49.800;9.990;2022-07-29T07:34:57;7.20;;;6.60;;
5319;SDS011;2682;49.800;9.990;2022-07-29T07:37:23;4.40;;;4.20;;
5319;SDS011;2682;49.800;9.990;2022-07-29T07:39:50;7.00;;;7.00;;
5319;SDS011;2682;49.800;9.990;2022-07-29T07:42:17;6.60;;;6.60;;
5319;SDS011;2682;49.800;9.990;2022-07-29T07:44:43;5.40;;;5.40;;
5319;SDS011;2682;49.800;9.990;2022-07-29T07:47:12;6.80;;;6.80;;
5319;SDS011;2682;49.800;9.990;2022-07-29T07:49:38;7.00;;;7.00;;
5319;SDS011;2682;49.800;9.990;2022-07-29T07:52:05;6.00;;;5.40;;
5319;SDS011;2682;49.800;9.990;2022-07-29T07:54:31;6.20;;;6.00;;
5319;SDS011;2682;49.800;9.990;2022-07-29T07:56:58;6.00;;;6.00;;
5319;SDS011;2682;49.800;9.990;2022-07-29T07:59:25;6.00;;;6.00;;
5319;SDS011;2682;49.800;9.990;2022-07-29T08:01:52;6.00;;;5.60;;
5319;SDS011;2682;49.800;9.990;2022-07-29T08:04:20;7.00;;;7.00;;
5319;SDS011;2682;49.800;9.990;2022-07-29T08:06:46;7.20;;;7.00;;
5319;SDS011;2682;49.800;9.990;2022-07-29T08:09:14;7.80;;;7.40;;
5319;SDS011;2682;49.800;9.990;2022-07-29T08:11:41;8.00;;;7.80;;
5319;SDS011;2682;49.800;9.990;2022-07-29T08:14:08;7.00;;;7.00;;
5319;SDS011;2682;49.800;9.990;2022-07-29T08:16:34;6.00;;;6.00;;
5319;SDS011;2682;49.800;9.990;2022-07-29T08:19:01;7.00;;;7.00;;
5319;SDS011;2682;49.800;9.990;2022-07-29T08:21:28;8.00;;;7.00;;
5319;SDS011;2682;49.800;9.990;2022-07-29T08:23:55;6.00;;;6.00;;
5319;SDS011;2682;49.800;9.990;2022-07-29T08:26:42;7.00;;;7.00;;
5319;SDS011;2682;49.800;9.990;2022-07-29T08:29:09;6.60;;;6.00;;
5319;SDS011;2682;49.800;9.990;2022-07-29T08:31:36;7.40;;;7.00;;
5319;SDS011;2682;49.800;9.990;2022-07-29T08:34:03;8.00;;;8.00;;
5319;SDS011;2682;49.800;9.990;2022-07-29T08:36:31;10.00;;;8.40;;
5319;SDS011;2682;49.800;9.990;2022-07-29T08:38:58;7.80;;;7.00;;
5319;SDS011;2682;49.800;9.990;2022-07-29T08:41:25;5.40;;;5.40;;
5319;SDS011;2682;49.800;9.990;2022-07-29T08:43:51;6.00;;;6.00;;
5319;SDS011;2682;49.800;9.990;2022-07-29T08:46:18;6.80;;;6.80;;
5319;SDS011;2682;49.800;9.990;2022-07-29T08:48:45;6.40;;;6.40;;
5319;SDS011;2682;49.800;9.990;2022-07-29T08:51:13;6.00;;;6.00;;
5319;SDS011;2682;49.800;9.990;2022-07-29T08:53:42;7.00;;;6.00;;
5319;SDS011;2682;49.800;9.990;2022-07-29T08:56:11;6.40;;;6.40;;
5319;SDS011;2682;49.800;9.990;2022-07-29T08:58:37;6.80;;;6.80;;
5319;SDS011;2682;49.800;9.990;2022-07-29T09:01:04;7.80;;;7.80;;
5319;SDS011;2682;49.800;9.990;2022-07-29T09:03:31;6.40;;;6.40;;
5319;SDS011;2682;49.800;9.990;2022-07-29T09:05:58;5.80;;;5.60;;
5319;SDS011;2682;49.800;9.990;2022-07-29T09:08:25;5.80;;;5.40;;
5319;SDS011;2682;49.800;9.990;2022-07-29T09:10:53;6.00;;;6.00;;
5319;SDS011;2682;49.800;9.990;2022-07-29T09:13:20;7.00;;;6.00;;
5319;SDS011;2682;49.800;9.990;2022-07-29T09:15:47;7.60;;;6.00;;
5319;SDS011;2682;49.800;9.990;2022-07-29T09:18:27;6.20;;;6.20;;
5319;SDS011;2682;49.800;9.990;2022-07-29T09:20:59;6.00;;;6.00;;
5319;SDS011;2682;49.800;9.990;2022-07-29T09:23:39;6.00;;;6.00;;
5319;SDS011;2682;49.800;9.990;2022-07-29T09:26:09;7.00;;;6.60;;
5319;SDS011;2682;49.800;9.990;2022-07-29T09:28:36;8.00;;;8.00;;
5319;SDS011;2682;49.800;9.990;2022-07-29T09:31:07;6.00;;;6.00;;
5319;SDS011;2682;49.800;9.990;2022-07-29T09:33:34;6.60;;;6.20;;
5319;SDS011;2682;49.800;9.990;2022-07-29T09:36:02;6.00;;;6.00;;
5319;SDS011;2682;49.800;9.990;2022-07-29T09:38:29;8.00;;;6.00;;
5319;SDS011;2682;49.800;9.990;2022-07-29T09:40:56;6.00;;;6.00;;
5319;SDS011;2682;49.800;9.990;2022-07-29T09:43:24;6.00;;;5.60;;
5319;SDS011;2682;49.800;9.990;2022-07-29T09:45:51;6.20;;;6.00;;
5319;SDS011;2682;49.800;9.990;2022-07-29T09:48:18;6.60;;;6.20;;
5319;SDS011;2682;49.800;9.990;2022-07-29T09:50:45;7.40;;;7.00;;
5319;SDS011;2682;49.800;9.990;2022-07-29T09:53:28;6.60;;;6.20;;
5319;SDS011;2682;49.800;9.990;2022-07-29T09:55:56;6.20;;;6.00;;
5319;SDS011;2682;49.800;9.990;2022-07-29T09:58:22;7.20;;;7.00;;
5319;SDS011;2682;49.800;9.990;2022-07-29T10:00:50;7.80;;;7.80;;
5319;SDS011;2682;49.800;9.990;2022-07-29T10:03:17;6.60;;;6.60;;
5319;SDS011;2682;49.800;9.990;2022-07-29T10:05:44;7.60;;;6.80;;
5319;SDS011;2682;49.800;9.990;2022-07-29T10:08:11;6.60;;;6.60;;
5319;SDS011;2682;49.800;9.990;2022-07-29T10:10:38;7.60;;;7.00;;
5319;SDS011;2682;49.800;9.990;2022-07-29T10:13:06;7.80;;;7.00;;
5319;SDS011;2682;49.800;9.990;2022-07-29T10:15:34;7.80;;;7.60;;
5319;SDS011;2682;49.800;9.990;2022-07-29T10:18:05;7.00;;;7.00;;
5319;SDS011;2682;49.800;9.990;2022-07-29T10:20:32;6.00;;;6.00;;
5319;SDS011;2682;49.800;9.990;2022-07-29T10:22:59;7.60;;;6.60;;
5319;SDS011;2682;49.800;9.990;2022-07-29T10:25:25;7.00;;;7.00;;
5319;SDS011;2682;49.800;9.990;2022-07-29T10:27:53;7.60;;;7.20;;
5319;SDS011;2682;49.800;9.990;2022-07-29T10:30:22;8.80;;;8.20;;
5319;SDS011;2682;49.800;9.990;2022-07-29T10:32:53;7.00;;;6.40;;
5319;SDS011;2682;49.800;9.990;2022-07-29T10:35:29;6.80;;;6.80;;
5319;SDS011;2682;49.800;9.990;2022-07-29T10:38:10;6.40;;;6.00;;
5319;SDS011;2682;49.800;9.990;2022-07-29T10:40:43;8.00;;;7.80;;
5319;SDS011;2682;49.800;9.990;2022-07-29T10:43:35;7.00;;;6.00;;
5319;SDS011;2682;49.800;9.990;2022-07-29T10:46:03;6.80;;;6.80;;
5319;SDS011;2682;49.800;9.990;2022-07-29T10:48:30;5.60;;;5.20;;
5319;SDS011;2682;49.800;9.990;2022-07-29T10:50:59;6.80;;;6.00;;
5319;SDS011;2682;49.800;9.990;2022-07-29T10:56:07;7.00;;;6.40;;
5319;SDS011;2682;49.800;9.990;2022-07-29T10:58:57;6.80;;;6.80;;
5319;SDS011;2682;49.800;9.990;2022-07-29T11:01:44;7.00;;;7.00;;
5319;SDS011;2682;49.800;9.990;2022-07-29T11:04:10;6.00;;;5.80;;
5319;SDS011;2682;49.800;9.990;2022-07-29T11:09:24;6.00;;;6.00;;
5319;SDS011;2682;49.800;9.990;2022-07-29T11:11:50;6.40;;;6.00;;
5319;SDS011;2682;49.800;9.990;2022-07-29T11:14:17;7.00;;;7.00;;
5319;SDS011;2682;49.800;9.990;2022-07-29T11:17:00;6.00;;;6.00;;
5319;SDS011;2682;49.800;9.990;2022-07-29T11:19:28;6.60;;;6.60;;
5319;SDS011;2682;49.800;9.990;2022-07-29T11:21:58;6.20;;;6.20;;
5319;SDS011;2682;49.800;9.990;2022-07-29T11:24:27;5.80;;;5.60;;
5319;SDS011;2682;49.800;9.990;2022-07-29T11:27:11;7.40;;;7.40;;
5319;SDS011;2682;49.800;9.990;2022-07-29T11:29:39;7.20;;;7.20;;
5319;SDS011;2682;49.800;9.990;2022-07-29T11:32:10;7.00;;;7.00;;
5319;SDS011;2682;49.800;9.990;2022-07-29T11:34:37;7.00;;;7.00;;
5319;SDS011;2682;49.800;9.990;2022-07-29T11:37:21;6.40;;;6.20;;
5319;SDS011;2682;49.800;9.990;2022-07-29T11:42:45;6.00;;;6.00;;
5319;SDS011;2682;49.800;9.990;2022-07-29T11:45:13;7.80;;;6.80;;
5319;SDS011;2682;49.800;9.990;2022-07-29T11:47:41;8.00;;;7.60;;
5319;SDS011;2682;49.800;9.990;2022-07-29T11:50:13;7.00;;;7.00;;
5319;SDS011;2682;49.800;9.990;2022-07-29T11:52:40;7.00;;;7.00;;
5319;SDS011;2682;49.800;9.990;2022-07-29T11:55:10;8.00;;;7.80;;
5319;SDS011;2682;49.800;9.990;2022-07-29T11:57:46;8.00;;;8.00;;
5319;SDS011;2682;49.800;9.990;2022-07-29T12:00:16;8.00;;;7.40;;
5319;SDS011;2682;49.800;9.990;2022-07-29T12:02:46;8.20;;;8.00;;
5319;SDS011;2682;49.800;9.990;2022-07-29T12:05:13;9.00;;;8.00;;
5319;SDS011;2682;49.800;9.990;2022-07-29T12:07:39;10.00;;;9.80;;
5319;SDS011;2682;49.800;9.990;2022-07-29T12:10:06;7.00;;;6.80;;
5319;SDS011;2682;49.800;9.990;2022-07-29T12:12:36;9.00;;;8.00;;
5319;SDS011;2682;49.800;9.990;2022-07-29T12:15:14;8.80;;;8.00;;
5319;SDS011;2682;49.800;9.990;2022-07-29T12:17:43;8.60;;;8.00;;
5319;SDS011;2682;49.800;9.990;2022-07-29T12:20:09;7.80;;;6.40;;
5319;SDS011;2682;49.800;9.990;2022-07-29T12:22:38;8.00;;;8.00;;
5319;SDS011;2682;49.800;9.990;2022-07-29T12:25:06;7.00;;;7.00;;
5319;SDS011;2682;49.800;9.990;2022-07-29T12:27:34;10.80;;;10.00;;
5319;SDS011;2682;49.800;9.990;2022-07-29T12:30:03;7.40;;;7.40;;
5319;SDS011;2682;49.800;9.990;2022-07-29T12:32:34;8.00;;;7.20;;
5319;SDS011;2682;49.800;9.990;2022-07-29T12:35:04;7.40;;;7.00;;
5319;SDS011;2682;49.800;9.990;2022-07-29T12:37:32;8.20;;;7.60;;
5319;SDS011;2682;49.800;9.990;2022-07-29T12:39:59;8.00;;;7.40;;
5319;SDS011;2682;49.800;9.990;2022-07-29T12:42:26;8.00;;;8.00;;
5319;SDS011;2682;49.800;9.990;2022-07-29T12:44:52;7.80;;;7.80;;
5319;SDS011;2682;49.800;9.990;2022-07-29T12:47:19;7.60;;;7.60;;
5319;SDS011;2682;49.800;9.990;2022-07-29T12:49:47;7.00;;;6.80;;
5319;SDS011;2682;49.800;9.990;2022-07-29T12:52:24;8.00;;;7.20;;
5319;SDS011;2682;49.800;9.990;2022-07-29T12:54:50;6.40;;;5.60;;
5319;SDS011;2682;49.800;9.990;2022-07-29T12:57:17;7.00;;;7.00;;
5319;SDS011;2682;49.800;9.990;2022-07-29T12:59:43;7.20;;;7.00;;
5319;SDS011;2682;49.800;9.990;2022-07-29T13:02:20;8.00;;;7.60;;
5319;SDS011;2682;49.800;9.990;2022-07-29T13:04:55;7.80;;;7.80;;
5319;SDS011;2682;49.800;9.990;2022-07-29T13:07:23;8.00;;;8.00;;
5319;SDS011;2682;49.800;9.990;2022-07-29T13:09:50;7.60;;;7.20;;
5319;SDS011;2682;49.800;9.990;2022-07-29T13:12:17;5.60;;;5.60;;
5319;SDS011;2682;49.800;9.990;2022-07-29T13:14:44;7.00;;;7.00;;
5319;SDS011;2682;49.800;9.990;2022-07-29T13:17:11;7.60;;;7.00;;
5319;SDS011;2682;49.800;9.990;2022-07-29T13:19:39;6.80;;;6.00;;
5319;SDS011;2682;49.800;9.990;2022-07-29T13:22:08;6.00;;;6.00;;
5319;SDS011;2682;49.800;9.990;2022-07-29T13:24:46;7.40;;;6.80;;
5319;SDS011;2682;49.800;9.990;2022-07-29T13:27:13;6.00;;;6.00;;
5319;SDS011;2682;49.800;9.990;2022-07-29T13:29:39;7.00;;;6.40;;
5319;SDS011;2682;49.800;9.990;2022-07-29T13:32:06;6.40;;;6.40;;
5319;SDS011;2682;49.800;9.990;2022-07-29T13:34:32;6.60;;;6.60;;
5319;SDS011;2682;49.800;9.990;2022-07-29T13:36:59;6.20;;;6.20;;
5319;SDS011;2682;49.800;9.990;2022-07-29T13:39:27;6.80;;;5.80;;
5319;SDS011;2682;49.800;9.990;2022-07-29T13:41:53;6.20;;;6.00;;
5319;SDS011;2682;49.800;9.990;2022-07-29T13:44:20;8.00;;;6.60;;
5319;SDS011;2682;49.800;9.990;2022-07-29T13:46:47;7.00;;;7.00;;
5319;SDS011;2682;49.800;9.990;2022-07-29T13:49:13;7.80;;;7.20;;
5319;SDS011;2682;49.800;9.990;2022-07-29T13:51:40;9.00;;;7.80;;
5319;SDS011;2682;49.800;9.990;2022-07-29T13:54:06;6.80;;;6.40;;
5319;SDS011;2682;49.800;9.990;2022-07-29T13:56:34;7.00;;;7.00;;
5319;SDS011;2682;49.800;9.990;2022-07-29T13:59:01;7.60;;;6.60;;
5319;SDS011;2682;49.800;9.990;2022-07-29T14:01:27;6.80;;;6.80;;
5319;SDS011;2682;49.800;9.990;2022-07-29T14:03:55;8.20;;;7.80;;
5319;SDS011;2682;49.800;9.990;2022-07-29T14:06:21;7.20;;;7.20;;
5319;SDS011;2682;49.800;9.990;2022-07-29T14:08:48;8.80;;;7.60;;
5319;SDS011;2682;49.800;9.990;2022-07-29T14:11:14;9.00;;;8.20;;
5319;SDS011;2682;49.800;9.990;2022-07-29T14:13:42;8.80;;;8.60;;
5319;SDS011;2682;49.800;9.990;2022-07-29T14:16:09;9.00;;;8.00;;
5319;SDS011;2682;49.800;9.990;2022-07-29T14:18:35;9.40;;;9.00;;
5319;SDS011;2682;49.800;9.990;2022-07-29T14:21:02;9.80;;;9.00;;
5319;SDS011;2682;49.800;9.990;2022-07-29T14:23:28;9.80;;;9.40;;
5319;SDS011;2682;49.800;9.990;2022-07-29T14:25:55;8.60;;;8.60;;
5319;SDS011;2682;49.800;9.990;2022-07-29T14:28:22;9.00;;;8.60;;
5319;SDS011;2682;49.800;9.990;2022-07-29T14:30:49;9.60;;;9.60;;
5319;SDS011;2682;49.800;9.990;2022-07-29T14:33:16;9.40;;;9.00;;
5319;SDS011;2682;49.800;9.990;2022-07-29T14:35:43;10.20;;;9.80;;
5319;SDS011;2682;49.800;9.990;2022-07-29T14:38:10;10.20;;;10.20;;
5319;SDS011;2682;49.800;9.990;2022-07-29T14:40:36;10.00;;;10.00;;
5319;SDS011;2682;49.800;9.990;2022-07-29T14:43:03;10.40;;;10.00;;
5319;SDS011;2682;49.800;9.990;2022-07-29T14:45:30;10.60;;;9.80;;
5319;SDS011;2682;49.800;9.990;2022-07-29T14:47:58;10.80;;;10.00;;
5319;SDS011;2682;49.800;9.990;2022-07-29T14:50:25;11.40;;;10.40;;
5319;SDS011;2682;49.800;9.990;2022-07-29T14:52:51;11.20;;;10.80;;
5319;SDS011;2682;49.800;9.990;2022-07-29T14:55:18;10.40;;;10.00;;
5319;SDS011;2682;49.800;9.990;2022-07-29T14:57:44;9.00;;;8.00;;
5319;SDS011;2682;49.800;9.990;2022-07-29T15:00:11;11.60;;;10.40;;
5319;SDS011;2682;49.800;9.990;2022-07-29T15:02:38;11.00;;;9.00;;
5319;SDS011;2682;49.800;9.990;2022-07-29T15:05:07;10.40;;;10.00;;
5319;SDS011;2682;49.800;9.990;2022-07-29T15:07:33;9.60;;;9.00;;
5319;SDS011;2682;49.800;9.990;2022-07-29T15:10:00;11.20;;;10.20;;
5319;SDS011;2682;49.800;9.990;2022-07-29T15:12:27;10.00;;;10.00;;
5319;SDS011;2682;49.800;9.990;2022-07-29T15:14:54;11.40;;;10.80;;
5319;SDS011;2682;49.800;9.990;2022-07-29T15:17:21;11.80;;;11.40;;
5319;SDS011;2682;49.800;9.990;2022-07-29T15:19:50;9.00;;;8.60;;
5319;SDS011;2682;49.800;9.990;2022-07-29T15:22:18;10.40;;;10.40;;
5319;SDS011;2682;49.800;9.990;2022-07-29T15:24:44;9.80;;;9.80;;
5319;SDS011;2682;49.800;9.990;2022-07-29T15:27:18;8.00;;;8.00;;
5319;SDS011;2682;49.800;9.990;2022-07-29T15:29:45;11.00;;;10.60;;
5319;SDS011;2682;49.800;9.990;2022-07-29T15:32:11;10.20;;;9.80;;